sensor_id;sensor_type;location;lat;lon;timestamp;pressure;altitude;pressure_sealevel;temperature;humidity
69219;BME280;56232;53.384;-2.732;2022-09-13T00:01:39;100943.14;;;11.47;46.31
69219;BME280;56232;53.384;-2.732;2022-09-13T00:04:05;100949.73;;;11.52;46.67
69219;BME280;56232;53.384;-2.732;2022-09-13T00:06:30;100950.00;;;11.60;46.87
69219;BME280;56232;53.384;-2.732;2022-09-13T00:08:56;100947.48;;;11.17;47.11
69219;BME280;56232;53.384;-2.732;2022-09-13T00:11:23;100944.71;;;11.86;47.22
69219;BME280;56232;53.384;-2.732;2022-09-13T00:13:48;100942.52;;;12.01;47.13
69219;BME280;56232;53.384;-2.732;2022-09-13T00:16:14;100942.59;;;11.65;46.97
69219;BME280;56232;53.384;-2.732;2022-09-13T00:18:39;100944.04;;;11.04;47.05
69219;BME280;56232;53.384;-2.732;2022-09-13T00:21:06;100947.11;;;12.03;46.88
69219;BME280;56232;53.384;-2.732;2022-09-13T00:23:30;100946.93;;;10.85;47.18
69219;BME280;56232;53.384;-2.732;2022-09-13T00:26:02;100947.04;;;11.89;47.04
69219;BME280;56232;53.384;-2.732;2022-09-13T00:28:21;100943.17;;;11.89;47.13
69219;BME280;56232;53.384;-2.732;2022-09-13T00:30:47;100941.19;;;10.79;47.22
69219;BME280;56232;53.384;-2.732;2022-09-13T00:33:12;100943.48;;;11.90;47.18
69219;BME280;56232;53.384;-2.732;2022-09-13T00:35:38;100947.17;;;11.92;47.04
69219;BME280;56232;53.384;-2.732;2022-09-13T00:38:03;100951.49;;;11.85;46.82
69219;BME280;56232;53.384;-2.732;2022-09-13T00:40:29;100952.95;;;10.70;46.75
69219;BME280;56232;53.384;-2.732;2022-09-13T00:42:55;100958.69;;;11.23;46.49
69219;BME280;56232;53.384;-2.732;2022-09-13T00:45:21;100956.29;;;11.71;46.46
69219;BME280;56232;53.384;-2.732;2022-09-13T00:47:50;100947.76;;;11.63;46.36
69219;BME280;56232;53.384;-2.732;2022-09-13T00:50:17;100944.16;;;11.54;46.57
69219;BME280;56232;53.384;-2.732;2022-09-13T00:52:39;100944.38;;;11.48;46.55
69219;BME280;56232;53.384;-2.732;2022-09-13T00:55:07;100942.68;;;11.49;46.46
69219;BME280;56232;53.384;-2.732;2022-09-13T00:57:31;100940.19;;;11.48;46.55
69219;BME280;56232;53.384;-2.732;2022-09-13T01:00:00;100946.73;;;11.45;46.45
69219;BME280;56232;53.384;-2.732;2022-09-13T01:02:20;100947.59;;;10.37;46.28
69219;BME280;56232;53.384;-2.732;2022-09-13T01:04:46;100944.54;;;10.88;46.25
69219;BME280;56232;53.384;-2.732;2022-09-13T01:07:14;100948.08;;;11.34;46.14
69219;BME280;56232;53.384;-2.732;2022-09-13T01:09:40;100947.73;;;10.84;45.99
69219;BME280;56232;53.384;-2.732;2022-09-13T01:12:06;100948.56;;;11.17;46.08
69219;BME280;56232;53.384;-2.732;2022-09-13T01:14:30;100951.38;;;11.56;46.11
69219;BME280;56232;53.384;-2.732;2022-09-13T01:16:54;100952.11;;;11.45;46.15
69219;BME280;56232;53.384;-2.732;2022-09-13T01:19:20;100952.70;;;10.98;46.05
69219;BME280;56232;53.384;-2.732;2022-09-13T01:26:47;100945.07;;;11.62;46.29
69219;BME280;56232;53.384;-2.732;2022-09-13T01:29:19;100942.66;;;11.07;46.24
69219;BME280;56232;53.384;-2.732;2022-09-13T01:31:34;100945.84;;;10.98;46.39
69219;BME280;56232;53.384;-2.732;2022-09-13T01:34:03;100944.75;;;10.98;46.42
69219;BME280;56232;53.384;-2.732;2022-09-13T01:36:32;100948.90;;;10.95;46.32
69219;BME280;56232;53.384;-2.732;2022-09-13T01:38:53;100943.97;;;11.02;46.11
69219;BME280;56232;53.384;-2.732;2022-09-13T01:41:26;100935.94;;;10.46;45.98
69219;BME280;56232;53.384;-2.732;2022-09-13T01:43:46;100929.18;;;10.91;45.93
69219;BME280;56232;53.384;-2.732;2022-09-13T01:46:04;100929.79;;;10.86;45.80
69219;BME280;56232;53.384;-2.732;2022-09-13T01:48:35;100934.37;;;11.19;46.13
69219;BME280;56232;53.384;-2.732;2022-09-13T01:51:00;100934.09;;;11.15;46.03
69219;BME280;56232;53.384;-2.732;2022-09-13T01:53:26;100931.52;;;10.65;45.98
69219;BME280;56232;53.384;-2.732;2022-09-13T01:55:49;100922.89;;;10.59;46.05
69219;BME280;56232;53.384;-2.732;2022-09-13T01:58:20;100917.81;;;10.56;46.22
69219;BME280;56232;53.384;-2.732;2022-09-13T02:00:41;100913.95;;;11.06;46.01
69219;BME280;56232;53.384;-2.732;2022-09-13T02:03:04;100911.65;;;10.49;46.20
69219;BME280;56232;53.384;-2.732;2022-09-13T02:05:32;100919.25;;;10.87;46.49
69219;BME280;56232;53.384;-2.732;2022-09-13T02:07:57;100923.94;;;10.38;46.51
69219;BME280;56232;53.384;-2.732;2022-09-13T02:10:23;100927.78;;;10.97;46.27
69219;BME280;56232;53.384;-2.732;2022-09-13T02:12:47;100927.57;;;11.01;46.21
69219;BME280;56232;53.384;-2.732;2022-09-13T02:15:14;100921.62;;;10.60;46.47
69219;BME280;56232;53.384;-2.732;2022-09-13T02:17:38;100920.81;;;11.20;46.48
69219;BME280;56232;53.384;-2.732;2022-09-13T02:20:06;100913.33;;;11.20;46.55
69219;BME280;56232;53.384;-2.732;2022-09-13T02:22:31;100912.14;;;11.22;46.52
69219;BME280;56232;53.384;-2.732;2022-09-13T02:24:56;100918.19;;;10.66;46.48
69219;BME280;56232;53.384;-2.732;2022-09-13T02:27:22;100925.55;;;10.63;46.24
69219;BME280;56232;53.384;-2.732;2022-09-13T02:29:49;100923.81;;;10.51;46.22
69219;BME280;56232;53.384;-2.732;2022-09-13T02:32:14;100921.59;;;10.50;45.85
69219;BME280;56232;53.384;-2.732;2022-09-13T02:34:39;100912.81;;;10.42;46.17
69219;BME280;56232;53.384;-2.732;2022-09-13T02:37:03;100908.00;;;10.80;46.13
69219;BME280;56232;53.384;-2.732;2022-09-13T02:39:30;100908.39;;;10.23;46.35
69219;BME280;56232;53.384;-2.732;2022-09-13T02:41:57;100919.06;;;10.26;46.53
69219;BME280;56232;53.384;-2.732;2022-09-13T02:44:23;100922.03;;;10.37;46.77
69219;BME280;56232;53.384;-2.732;2022-09-13T02:46:58;100926.26;;;10.48;46.77
69219;BME280;56232;53.384;-2.732;2022-09-13T02:49:13;100922.12;;;11.05;46.64
69219;BME280;56232;53.384;-2.732;2022-09-13T02:51:43;100916.96;;;10.98;46.47
69219;BME280;56232;53.384;-2.732;2022-09-13T02:54:09;100918.88;;;10.45;46.33
69219;BME280;56232;53.384;-2.732;2022-09-13T02:56:34;100921.40;;;10.88;46.68
69219;BME280;56232;53.384;-2.732;2022-09-13T02:58:56;100921.47;;;10.31;46.90
69219;BME280;56232;53.384;-2.732;2022-09-13T03:01:20;100922.81;;;10.78;47.09
69219;BME280;56232;53.384;-2.732;2022-09-13T03:03:44;100922.09;;;10.73;46.94
69219;BME280;56232;53.384;-2.732;2022-09-13T03:06:10;100928.42;;;10.72;47.08
69219;BME280;56232;53.384;-2.732;2022-09-13T03:08:36;100923.57;;;10.25;47.01
69219;BME280;56232;53.384;-2.732;2022-09-13T03:11:09;100921.33;;;10.75;46.83
69219;BME280;56232;53.384;-2.732;2022-09-13T03:13:36;100921.99;;;10.34;46.63
69219;BME280;56232;53.384;-2.732;2022-09-13T03:15:59;100916.21;;;10.92;46.58
69219;BME280;56232;53.384;-2.732;2022-09-13T03:18:33;100909.22;;;10.93;46.61
69219;BME280;56232;53.384;-2.732;2022-09-13T03:20:51;100906.19;;;10.43;46.58
69219;BME280;56232;53.384;-2.732;2022-09-13T03:25:49;100914.01;;;10.58;46.91
69219;BME280;56232;53.384;-2.732;2022-09-13T03:28:09;100913.34;;;10.80;47.38
69219;BME280;56232;53.384;-2.732;2022-09-13T03:30:27;100908.25;;;11.69;47.48
69219;BME280;56232;53.384;-2.732;2022-09-13T03:33:00;100900.94;;;11.47;47.57
69219;BME280;56232;53.384;-2.732;2022-09-13T03:35:25;100898.49;;;11.67;47.27
69219;BME280;56232;53.384;-2.732;2022-09-13T03:37:49;100897.54;;;11.60;47.20
69219;BME280;56232;53.384;-2.732;2022-09-13T03:40:12;100894.24;;;11.06;47.33
69219;BME280;56232;53.384;-2.732;2022-09-13T03:42:41;100895.42;;;11.45;47.49
69219;BME280;56232;53.384;-2.732;2022-09-13T03:45:02;100897.75;;;11.36;47.60
69219;BME280;56232;53.384;-2.732;2022-09-13T03:47:28;100899.14;;;11.32;47.55
69219;BME280;56232;53.384;-2.732;2022-09-13T03:49:52;100899.22;;;11.29;47.32
69219;BME280;56232;53.384;-2.732;2022-09-13T03:52:18;100897.80;;;10.85;47.28
69219;BME280;56232;53.384;-2.732;2022-09-13T03:54:43;100899.20;;;11.44;47.21
69219;BME280;56232;53.384;-2.732;2022-09-13T03:57:10;100896.56;;;11.60;47.51
69219;BME280;56232;53.384;-2.732;2022-09-13T03:59:35;100893.31;;;11.76;47.74
69219;BME280;56232;53.384;-2.732;2022-09-13T04:02:00;100888.38;;;11.35;47.47
69219;BME280;56232;53.384;-2.732;2022-09-13T04:04:26;100891.37;;;11.90;47.66
69219;BME280;56232;53.384;-2.732;2022-09-13T04:06:52;100886.16;;;11.95;47.82
69219;BME280;56232;53.384;-2.732;2022-09-13T04:09:17;100884.82;;;12.02;48.11
69219;BME280;56232;53.384;-2.732;2022-09-13T04:11:43;100886.38;;;12.13;48.18
69219;BME280;56232;53.384;-2.732;2022-09-13T04:14:09;100889.46;;;11.24;48.09
69219;BME280;56232;53.384;-2.732;2022-09-13T04:16:34;100895.79;;;11.45;48.17
69219;BME280;56232;53.384;-2.732;2022-09-13T04:19:00;100901.08;;;11.65;48.20
69219;BME280;56232;53.384;-2.732;2022-09-13T04:21:26;100900.14;;;11.83;48.17
69219;BME280;56232;53.384;-2.732;2022-09-13T04:23:51;100903.83;;;11.93;48.21
69219;BME280;56232;53.384;-2.732;2022-09-13T04:26:17;100904.26;;;11.97;48.16
69219;BME280;56232;53.384;-2.732;2022-09-13T04:28:42;100907.37;;;11.99;48.07
69219;BME280;56232;53.384;-2.732;2022-09-13T04:31:08;100913.93;;;11.96;48.39
69219;BME280;56232;53.384;-2.732;2022-09-13T04:33:34;100918.68;;;12.03;48.35
69219;BME280;56232;53.384;-2.732;2022-09-13T04:36:00;100915.60;;;12.14;48.17
69219;BME280;56232;53.384;-2.732;2022-09-13T04:38:25;100913.10;;;12.30;48.04
69219;BME280;56232;53.384;-2.732;2022-09-13T04:40:52;100909.85;;;12.57;48.03
69219;BME280;56232;53.384;-2.732;2022-09-13T04:43:16;100912.75;;;12.69;47.84
69219;BME280;56232;53.384;-2.732;2022-09-13T04:45:42;100914.74;;;12.79;47.81
69219;BME280;56232;53.384;-2.732;2022-09-13T04:48:07;100916.90;;;12.28;47.85
69219;BME280;56232;53.384;-2.732;2022-09-13T04:50:33;100920.38;;;12.83;47.95
69219;BME280;56232;53.384;-2.732;2022-09-13T04:52:59;100921.14;;;12.46;47.93
69219;BME280;56232;53.384;-2.732;2022-09-13T04:55:29;100920.63;;;13.06;47.86
69219;BME280;56232;53.384;-2.732;2022-09-13T04:57:52;100915.48;;;13.13;47.90
69219;BME280;56232;53.384;-2.732;2022-09-13T05:00:16;100914.01;;;12.74;47.86
69219;BME280;56232;53.384;-2.732;2022-09-13T05:02:41;100907.60;;;12.75;47.60
69219;BME280;56232;53.384;-2.732;2022-09-13T05:05:07;100904.08;;;12.03;47.48
69219;BME280;56232;53.384;-2.732;2022-09-13T05:07:32;100905.33;;;12.85;47.39
69219;BME280;56232;53.384;-2.732;2022-09-13T05:09:58;100905.21;;;12.59;47.35
69219;BME280;56232;53.384;-2.732;2022-09-13T05:12:23;100905.05;;;12.23;47.25
69219;BME280;56232;53.384;-2.732;2022-09-13T05:14:50;100908.66;;;12.45;47.23
69219;BME280;56232;53.384;-2.732;2022-09-13T05:17:15;100911.81;;;12.52;47.09
69219;BME280;56232;53.384;-2.732;2022-09-13T05:19:40;100912.47;;;11.15;47.37
69219;BME280;56232;53.384;-2.732;2022-09-13T05:22:06;100915.32;;;11.09;47.40
69219;BME280;56232;53.384;-2.732;2022-09-13T05:24:32;100920.63;;;11.82;47.51
69219;BME280;56232;53.384;-2.732;2022-09-13T05:26:57;100916.47;;;11.30;47.78
69219;BME280;56232;53.384;-2.732;2022-09-13T05:29:23;100910.57;;;11.54;47.85
69219;BME280;56232;53.384;-2.732;2022-09-13T05:31:50;100909.66;;;11.62;47.85
69219;BME280;56232;53.384;-2.732;2022-09-13T05:34:16;100910.03;;;11.76;47.95
69219;BME280;56232;53.384;-2.732;2022-09-13T05:36:40;100908.68;;;11.22;47.81
69219;BME280;56232;53.384;-2.732;2022-09-13T05:39:06;100911.21;;;11.50;47.68
69219;BME280;56232;53.384;-2.732;2022-09-13T05:41:31;100917.49;;;11.86;47.69
69219;BME280;56232;53.384;-2.732;2022-09-13T05:43:57;100915.41;;;10.98;47.80
69219;BME280;56232;53.384;-2.732;2022-09-13T05:46:22;100909.86;;;11.46;46.97
69219;BME280;56232;53.384;-2.732;2022-09-13T05:48:49;100903.54;;;11.40;46.95
69219;BME280;56232;53.384;-2.732;2022-09-13T05:51:15;100904.10;;;10.94;47.34
69219;BME280;56232;53.384;-2.732;2022-09-13T05:53:41;100906.72;;;11.11;47.70
69219;BME280;56232;53.384;-2.732;2022-09-13T05:56:06;100910.05;;;12.38;47.83
69219;BME280;56232;53.384;-2.732;2022-09-13T05:58:31;100911.67;;;11.43;47.60
69219;BME280;56232;53.384;-2.732;2022-09-13T06:00:57;100916.20;;;11.49;47.61
69219;BME280;56232;53.384;-2.732;2022-09-13T06:03:22;100920.15;;;11.82;48.02
69219;BME280;56232;53.384;-2.732;2022-09-13T06:05:48;100919.25;;;12.33;48.14
69219;BME280;56232;53.384;-2.732;2022-09-13T06:08:14;100919.64;;;12.74;48.01
69219;BME280;56232;53.384;-2.732;2022-09-13T06:10:39;100922.12;;;12.62;47.51
69219;BME280;56232;53.384;-2.732;2022-09-13T06:13:05;100924.97;;;12.49;46.99
69219;BME280;56232;53.384;-2.732;2022-09-13T06:15:30;100924.60;;;12.60;47.50
69219;BME280;56232;53.384;-2.732;2022-09-13T06:17:56;100922.85;;;13.50;47.64
69219;BME280;56232;53.384;-2.732;2022-09-13T06:20:22;100923.73;;;12.98;47.36
69219;BME280;56232;53.384;-2.732;2022-09-13T06:22:48;100926.92;;;13.28;46.95
69219;BME280;56232;53.384;-2.732;2022-09-13T06:25:13;100926.48;;;13.26;46.54
69219;BME280;56232;53.384;-2.732;2022-09-13T06:27:39;100928.47;;;13.64;46.95
69219;BME280;56232;53.384;-2.732;2022-09-13T06:30:06;100934.04;;;13.12;46.89
69219;BME280;56232;53.384;-2.732;2022-09-13T06:32:30;100933.99;;;13.17;46.63
69219;BME280;56232;53.384;-2.732;2022-09-13T06:34:56;100927.79;;;13.27;47.19
69219;BME280;56232;53.384;-2.732;2022-09-13T06:37:21;100919.67;;;13.66;47.09
69219;BME280;56232;53.384;-2.732;2022-09-13T06:39:47;100916.97;;;13.99;47.03
69219;BME280;56232;53.384;-2.732;2022-09-13T06:42:13;100921.63;;;13.75;47.11
69219;BME280;56232;53.384;-2.732;2022-09-13T06:44:38;100922.67;;;13.90;46.24
69219;BME280;56232;53.384;-2.732;2022-09-13T06:47:04;100924.49;;;14.58;46.71
69219;BME280;56232;53.384;-2.732;2022-09-13T06:49:30;100931.99;;;13.88;46.81
69219;BME280;56232;53.384;-2.732;2022-09-13T06:51:55;100933.41;;;15.18;46.48
69219;BME280;56232;53.384;-2.732;2022-09-13T06:54:21;100937.56;;;14.82;46.70
69219;BME280;56232;53.384;-2.732;2022-09-13T06:56:46;100942.96;;;14.59;46.65
69219;BME280;56232;53.384;-2.732;2022-09-13T06:59:12;100944.25;;;14.81;46.15
69219;BME280;56232;53.384;-2.732;2022-09-13T07:01:39;100944.78;;;14.96;46.13
69219;BME280;56232;53.384;-2.732;2022-09-13T07:04:05;100949.69;;;15.09;46.32
69219;BME280;56232;53.384;-2.732;2022-09-13T07:06:30;100947.82;;;14.77;46.31
69219;BME280;56232;53.384;-2.732;2022-09-13T07:08:55;100944.29;;;15.67;46.44
69219;BME280;56232;53.384;-2.732;2022-09-13T07:11:21;100940.25;;;15.29;46.24
69219;BME280;56232;53.384;-2.732;2022-09-13T07:13:47;100934.94;;;16.20;45.89
69219;BME280;56232;53.384;-2.732;2022-09-13T07:16:11;100933.03;;;15.64;45.53
69219;BME280;56232;53.384;-2.732;2022-09-13T07:18:37;100931.22;;;16.43;45.34
69219;BME280;56232;53.384;-2.732;2022-09-13T07:21:03;100928.96;;;15.42;45.55
69219;BME280;56232;53.384;-2.732;2022-09-13T07:23:27;100928.40;;;16.45;45.54
69219;BME280;56232;53.384;-2.732;2022-09-13T07:25:53;100936.58;;;15.52;45.76
69219;BME280;56232;53.384;-2.732;2022-09-13T07:28:18;100935.68;;;15.77;45.53
69219;BME280;56232;53.384;-2.732;2022-09-13T07:30:43;100930.95;;;16.44;45.11
69219;BME280;56232;53.384;-2.732;2022-09-13T07:33:09;100922.83;;;16.19;45.31
69219;BME280;56232;53.384;-2.732;2022-09-13T07:35:34;100923.68;;;17.03;45.41
69219;BME280;56232;53.384;-2.732;2022-09-13T07:38:00;100929.69;;;16.62;45.33
69219;BME280;56232;53.384;-2.732;2022-09-13T07:40:25;100938.43;;;16.87;45.12
69219;BME280;56232;53.384;-2.732;2022-09-13T07:42:51;100939.43;;;17.09;44.63
69219;BME280;56232;53.384;-2.732;2022-09-13T07:45:17;100942.57;;;17.29;44.44
69219;BME280;56232;53.384;-2.732;2022-09-13T07:47:42;100933.76;;;16.29;44.29
69219;BME280;56232;53.384;-2.732;2022-09-13T07:50:09;100936.69;;;16.50;44.31
69219;BME280;56232;53.384;-2.732;2022-09-13T07:52:33;100940.58;;;16.72;44.32
69219;BME280;56232;53.384;-2.732;2022-09-13T07:54:59;100944.68;;;16.58;42.81
69219;BME280;56232;53.384;-2.732;2022-09-13T07:57:26;100942.20;;;16.56;43.39
69219;BME280;56232;53.384;-2.732;2022-09-13T07:59:51;100937.88;;;16.61;43.27
69219;BME280;56232;53.384;-2.732;2022-09-13T08:02:16;100939.14;;;16.60;43.66
69219;BME280;56232;53.384;-2.732;2022-09-13T08:04:41;100946.56;;;16.83;43.96
69219;BME280;56232;53.384;-2.732;2022-09-13T08:07:07;100949.14;;;17.12;44.05
69219;BME280;56232;53.384;-2.732;2022-09-13T08:09:32;100945.37;;;17.16;42.57
69219;BME280;56232;53.384;-2.732;2022-09-13T08:11:58;100946.76;;;17.09;42.56
69219;BME280;56232;53.384;-2.732;2022-09-13T08:14:24;100940.24;;;17.55;43.46
69219;BME280;56232;53.384;-2.732;2022-09-13T08:16:53;100938.12;;;17.55;43.55
69219;BME280;56232;53.384;-2.732;2022-09-13T08:19:17;100942.02;;;17.70;43.04
69219;BME280;56232;53.384;-2.732;2022-09-13T08:21:41;100946.45;;;17.83;43.58
69219;BME280;56232;53.384;-2.732;2022-09-13T08:24:10;100950.64;;;18.32;43.21
69219;BME280;56232;53.384;-2.732;2022-09-13T08:26:34;100943.79;;;17.39;42.68
69219;BME280;56232;53.384;-2.732;2022-09-13T08:28:59;100931.45;;;17.60;42.18
69219;BME280;56232;53.384;-2.732;2022-09-13T08:31:25;100927.21;;;18.71;42.54
69219;BME280;56232;53.384;-2.732;2022-09-13T08:33:50;100934.41;;;20.04;40.75
69219;BME280;56232;53.384;-2.732;2022-09-13T08:36:15;100931.81;;;20.20;40.85
69219;BME280;56232;53.384;-2.732;2022-09-13T08:38:45;100931.95;;;21.05;39.98
69219;BME280;56232;53.384;-2.732;2022-09-13T08:43:41;100931.44;;;22.76;39.48
69219;BME280;56232;53.384;-2.732;2022-09-13T08:46:00;100923.01;;;23.76;39.15
69219;BME280;56232;53.384;-2.732;2022-09-13T08:48:26;100924.46;;;24.33;37.77
69219;BME280;56232;53.384;-2.732;2022-09-13T08:50:51;100928.02;;;25.20;36.81
69219;BME280;56232;53.384;-2.732;2022-09-13T08:53:17;100927.99;;;24.60;36.78
69219;BME280;56232;53.384;-2.732;2022-09-13T08:55:46;100926.77;;;26.20;35.30
69219;BME280;56232;53.384;-2.732;2022-09-13T08:58:24;100927.44;;;25.42;35.14
69219;BME280;56232;53.384;-2.732;2022-09-13T09:00:33;100931.29;;;26.08;34.26
69219;BME280;56232;53.384;-2.732;2022-09-13T09:03:03;100934.90;;;25.30;33.75
69219;BME280;56232;53.384;-2.732;2022-09-13T09:05:22;100937.55;;;25.40;34.17
69219;BME280;56232;53.384;-2.732;2022-09-13T09:07:50;100934.87;;;25.59;32.96
69219;BME280;56232;53.384;-2.732;2022-09-13T09:10:16;100937.01;;;24.92;33.62
69219;BME280;56232;53.384;-2.732;2022-09-13T09:12:41;100933.76;;;25.26;33.40
69219;BME280;56232;53.384;-2.732;2022-09-13T09:15:12;100939.30;;;25.88;30.97
69219;BME280;56232;53.384;-2.732;2022-09-13T09:17:34;100944.05;;;24.87;32.17
69219;BME280;56232;53.384;-2.732;2022-09-13T09:20:01;100947.22;;;24.90;32.30
69219;BME280;56232;53.384;-2.732;2022-09-13T09:22:21;100945.72;;;25.07;31.41
69219;BME280;56232;53.384;-2.732;2022-09-13T09:24:48;100939.72;;;25.43;31.42
69219;BME280;56232;53.384;-2.732;2022-09-13T09:27:14;100933.73;;;24.99;31.46
69219;BME280;56232;53.384;-2.732;2022-09-13T09:29:36;100936.54;;;25.59;30.83
69219;BME280;56232;53.384;-2.732;2022-09-13T09:32:11;100944.64;;;25.38;30.44
69219;BME280;56232;53.384;-2.732;2022-09-13T09:34:34;100944.53;;;24.65;30.48
69219;BME280;56232;53.384;-2.732;2022-09-13T09:36:57;100945.70;;;24.12;30.40
69219;BME280;56232;53.384;-2.732;2022-09-13T09:39:18;100946.40;;;23.94;31.14
69219;BME280;56232;53.384;-2.732;2022-09-13T09:41:44;100949.49;;;23.03;31.78
69219;BME280;56232;53.384;-2.732;2022-09-13T09:44:16;100948.32;;;21.54;32.46
69219;BME280;56232;53.384;-2.732;2022-09-13T09:46:37;100946.47;;;22.73;32.49
69219;BME280;56232;53.384;-2.732;2022-09-13T09:49:06;100943.99;;;23.07;31.88
69219;BME280;56232;53.384;-2.732;2022-09-13T09:51:27;100943.50;;;23.49;31.46
69219;BME280;56232;53.384;-2.732;2022-09-13T09:53:56;100946.67;;;23.53;31.00
69219;BME280;56232;53.384;-2.732;2022-09-13T09:56:21;100945.52;;;22.61;32.65
69219;BME280;56232;53.384;-2.732;2022-09-13T09:58:43;100940.90;;;22.33;32.51
69219;BME280;56232;53.384;-2.732;2022-09-13T10:01:13;100940.27;;;22.47;32.13
69219;BME280;56232;53.384;-2.732;2022-09-13T10:03:33;100940.17;;;23.98;29.80
69219;BME280;56232;53.384;-2.732;2022-09-13T10:06:04;100940.55;;;23.22;29.54
69219;BME280;56232;53.384;-2.732;2022-09-13T10:08:27;100937.70;;;23.56;30.29
69219;BME280;56232;53.384;-2.732;2022-09-13T10:10:53;100931.71;;;23.71;31.01
69219;BME280;56232;53.384;-2.732;2022-09-13T10:13:19;100932.00;;;23.37;29.87
69219;BME280;56232;53.384;-2.732;2022-09-13T10:18:13;100936.09;;;22.80;31.37
69219;BME280;56232;53.384;-2.732;2022-09-13T10:20:33;100929.53;;;22.62;31.63
69219;BME280;56232;53.384;-2.732;2022-09-13T10:25:24;100922.53;;;23.35;31.36
69219;BME280;56232;53.384;-2.732;2022-09-13T10:27:51;100925.72;;;23.26;31.30
69219;BME280;56232;53.384;-2.732;2022-09-13T10:30:25;100919.53;;;23.09;30.60
69219;BME280;56232;53.384;-2.732;2022-09-13T10:32:40;100918.61;;;22.72;29.86
69219;BME280;56232;53.384;-2.732;2022-09-13T10:35:08;100932.03;;;22.48;30.61
69219;BME280;56232;53.384;-2.732;2022-09-13T10:37:31;100931.87;;;21.22;30.90
69219;BME280;56232;53.384;-2.732;2022-09-13T10:40:01;100931.89;;;21.94;32.55
69219;BME280;56232;53.384;-2.732;2022-09-13T10:42:24;100930.21;;;22.02;32.65
69219;BME280;56232;53.384;-2.732;2022-09-13T10:44:52;100932.18;;;22.82;32.20
69219;BME280;56232;53.384;-2.732;2022-09-13T10:47:17;100924.28;;;22.36;31.94
69219;BME280;56232;53.384;-2.732;2022-09-13T10:49:44;100923.76;;;23.24;32.58
69219;BME280;56232;53.384;-2.732;2022-09-13T10:54:30;100922.11;;;23.57;32.45
69219;BME280;56232;53.384;-2.732;2022-09-13T10:56:55;100920.62;;;24.18;31.89
69219;BME280;56232;53.384;-2.732;2022-09-13T10:59:23;100920.62;;;24.75;31.97
69219;BME280;56232;53.384;-2.732;2022-09-13T11:01:56;100916.07;;;25.18;29.96
69219;BME280;56232;53.384;-2.732;2022-09-13T11:06:41;100902.16;;;24.69;30.46
69219;BME280;56232;53.384;-2.732;2022-09-13T11:09:08;100900.12;;;24.83;29.84
69219;BME280;56232;53.384;-2.732;2022-09-13T11:11:35;100900.83;;;23.89;31.34
69219;BME280;56232;53.384;-2.732;2022-09-13T11:14:04;100891.81;;;25.01;30.67
69219;BME280;56232;53.384;-2.732;2022-09-13T11:16:31;100890.15;;;23.54;31.43
69219;BME280;56232;53.384;-2.732;2022-09-13T11:18:56;100891.25;;;24.22;31.84
69219;BME280;56232;53.384;-2.732;2022-09-13T11:21:22;100887.87;;;23.95;31.33
69219;BME280;56232;53.384;-2.732;2022-09-13T11:23:46;100888.70;;;23.24;31.80
69219;BME280;56232;53.384;-2.732;2022-09-13T11:26:16;100888.22;;;22.71;32.45
69219;BME280;56232;53.384;-2.732;2022-09-13T11:28:35;100885.94;;;22.21;32.73
69219;BME280;56232;53.384;-2.732;2022-09-13T11:31:05;100885.87;;;22.34;32.61
69219;BME280;56232;53.384;-2.732;2022-09-13T11:33:28;100887.14;;;22.41;32.95
69219;BME280;56232;53.384;-2.732;2022-09-13T11:35:52;100887.09;;;22.34;34.04
69219;BME280;56232;53.384;-2.732;2022-09-13T11:38:25;100881.27;;;21.63;34.11
69219;BME280;56232;53.384;-2.732;2022-09-13T11:40:42;100877.39;;;22.62;33.90
69219;BME280;56232;53.384;-2.732;2022-09-13T11:43:15;100874.35;;;22.32;32.86
69219;BME280;56232;53.384;-2.732;2022-09-13T11:45:27;100876.16;;;22.92;32.29
69219;BME280;56232;53.384;-2.732;2022-09-13T11:48:06;100876.31;;;22.97;32.02
69219;BME280;56232;53.384;-2.732;2022-09-13T11:50:25;100876.93;;;22.84;33.61
69219;BME280;56232;53.384;-2.732;2022-09-13T11:52:51;100876.62;;;22.89;33.40
69219;BME280;56232;53.384;-2.732;2022-09-13T11:55:14;100876.01;;;22.76;32.96
69219;BME280;56232;53.384;-2.732;2022-09-13T11:57:37;100872.69;;;23.60;32.90
69219;BME280;56232;53.384;-2.732;2022-09-13T12:00:03;100868.68;;;23.63;33.49
69219;BME280;56232;53.384;-2.732;2022-09-13T12:02:28;100867.22;;;23.03;33.26
69219;BME280;56232;53.384;-2.732;2022-09-13T12:04:55;100866.67;;;23.47;33.46
69219;BME280;56232;53.384;-2.732;2022-09-13T12:07:24;100869.42;;;23.36;33.74
69219;BME280;56232;53.384;-2.732;2022-09-13T12:09:46;100873.14;;;23.50;32.80
69219;BME280;56232;53.384;-2.732;2022-09-13T12:12:10;100869.01;;;23.81;32.24
69219;BME280;56232;53.384;-2.732;2022-09-13T12:14:41;100866.35;;;25.17;32.83
69219;BME280;56232;53.384;-2.732;2022-09-13T12:17:02;100860.96;;;24.57;32.14
69219;BME280;56232;53.384;-2.732;2022-09-13T12:19:27;100855.90;;;24.86;32.39
69219;BME280;56232;53.384;-2.732;2022-09-13T12:21:52;100856.38;;;25.02;31.58
69219;BME280;56232;53.384;-2.732;2022-09-13T12:24:17;100864.43;;;24.56;32.24
69219;BME280;56232;53.384;-2.732;2022-09-13T12:26:45;100867.81;;;24.61;32.04
69219;BME280;56232;53.384;-2.732;2022-09-13T12:29:13;100862.46;;;24.57;32.94
69219;BME280;56232;53.384;-2.732;2022-09-13T12:31:31;100855.79;;;24.69;32.64
69219;BME280;56232;53.384;-2.732;2022-09-13T12:33:57;100865.68;;;24.13;32.12
69219;BME280;56232;53.384;-2.732;2022-09-13T12:36:37;100863.17;;;23.44;32.43
69219;BME280;56232;53.384;-2.732;2022-09-13T12:39:01;100863.78;;;24.16;33.89
69219;BME280;56232;53.384;-2.732;2022-09-13T12:41:23;100859.67;;;24.07;33.76
69219;BME280;56232;53.384;-2.732;2022-09-13T12:43:47;100856.66;;;24.55;33.92
69219;BME280;56232;53.384;-2.732;2022-09-13T12:46:17;100854.29;;;23.93;34.70
69219;BME280;56232;53.384;-2.732;2022-09-13T12:48:41;100851.14;;;23.51;34.35
69219;BME280;56232;53.384;-2.732;2022-09-13T12:51:05;100852.06;;;24.14;33.50